Time;durP1;ratioP1;P1;durP2;ratioP2;P2;SDS_P1;SDS_P2;PMS_P1;PMS_P2;Temp;Humidity;BMP_temperature;BMP_pressure;BME280_temperature;BME280_humidity;BME280_pressure;Samples;Min_cycle;Max_cycle;Signal;HPM_P1;HPM_P2
2022/11/06 00:01:12;;;;;;;0.50;0.50;;;10.90;99.90;10.80;101203.00;;;;5034576;28;20182;-67
2022/11/06 00:03:43;;;;;;;0.87;0.53;;;11.00;99.90;10.80;101195.00;;;;5035797;28;20168;-68
2022/11/06 00:09:04;;;;;;;1.17;1.07;;;11.00;99.90;10.80;101193.00;;;;5034620;28;20216;-67
2022/11/06 00:11:30;;;;;;;0.30;0.30;;;11.00;99.90;10.80;101135.00;;;;5034212;28;20625;-67
2022/11/06 00:13:57;;;;;;;0.73;0.73;;;11.00;99.90;11.10;101186.00;;;;5017932;28;20248;-67
2022/11/06 00:16:23;;;;;;;1.70;1.33;;;11.10;99.90;11.00;101130.00;;;;5034527;28;20205;-67
2022/11/06 00:18:49;;;;;;;0.40;0.40;;;11.10;99.90;10.80;101191.00;;;;5035125;28;20648;-67
2022/11/06 00:21:19;;;;;;;0.30;0.30;;;11.00;99.90;11.10;101169.00;;;;5034409;28;20173;-67
2022/11/06 00:23:46;;;;;;;0.87;0.87;;;11.10;99.90;10.90;101126.00;;;;5034200;28;20539;-67
2022/11/06 00:26:21;;;;;;;3.80;3.43;;;11.10;99.90;10.80;101170.00;;;;5017617;28;20188;-67
2022/11/06 00:28:48;;;;;;;0.50;0.50;;;11.00;99.90;11.00;101160.00;;;;5035204;28;20163;-67
2022/11/06 00:31:30;;;;;;;0.67;0.67;;;11.10;99.90;11.10;101162.00;;;;5033996;28;20199;-67
2022/11/06 00:33:59;;;;;;;0.50;0.50;;;11.10;99.90;11.10;101156.00;;;;5033951;28;20184;-67
2022/11/06 00:36:30;;;;;;;1.30;1.20;;;11.10;99.90;10.80;101168.00;;;;5035264;28;20549;-66
2022/11/06 00:38:58;;;;;;;0.30;0.30;;;11.00;99.90;10.80;101164.00;;;;5033988;28;20230;-67
2022/11/06 00:41:25;;;;;;;0.27;0.27;;;11.00;99.90;11.10;101127.00;;;;5017497;28;20211;-67
2022/11/06 00:43:59;;;;;;;5.40;4.93;;;11.00;99.90;11.00;101165.00;;;;5033807;28;20253;-67
2022/11/06 00:46:26;;;;;;;0.67;0.63;;;11.00;99.90;11.00;101158.00;;;;5033776;28;20214;-67
2022/11/06 00:48:53;;;;;;;0.43;0.43;;;11.00;99.90;11.00;101164.00;;;;5034836;28;20179;-67
2022/11/06 00:51:29;;;;;;;0.30;0.30;;;11.10;99.90;10.90;101174.00;;;;5017139;28;20269;-67
2022/11/06 00:53:58;;;;;;;0.40;0.40;;;11.00;99.90;11.10;101158.00;;;;5033714;28;20190;-67
2022/11/06 00:56:25;;;;;;;0.30;0.30;;;11.10;99.90;11.10;101153.00;;;;5033991;28;20167;-67
2022/11/06 00:58:51;;;;;;;0.30;0.30;;;11.10;99.90;10.90;101150.00;;;;5034650;28;20247;-67
2022/11/06 01:01:25;;;;;;;0.40;0.40;;;11.10;99.90;10.90;101166.00;;;;5033097;28;20717;-67
2022/11/06 01:04:00;;;;;;;0.30;0.27;;;11.00;99.90;11.00;101167.00;;;;5035270;28;20175;-67
2022/11/06 01:06:30;;;;;;;0.40;0.40;;;11.10;99.90;11.10;101150.00;;;;5033443;28;20648;-67
2022/11/06 01:08:57;;;;;;;1.00;0.87;;;11.10;99.90;11.00;101176.00;;;;5033296;28;20646;-67
2022/11/06 01:11:28;;;;;;;0.30;0.30;;;11.10;99.90;11.00;101180.00;;;;5017041;28;20254;-67
2022/11/06 01:13:57;;;;;;;0.50;0.50;;;11.10;99.90;11.10;101159.00;;;;5033283;28;20186;-67
2022/11/06 01:16:25;;;;;;;0.30;0.30;;;11.20;99.90;11.20;101148.00;;;;5033252;28;20172;-67
2022/11/06 01:18:53;;;;;;;0.70;0.70;;;11.20;99.90;11.30;101149.00;;;;5033098;28;20606;-68
2022/11/06 01:21:22;;;;;;;0.53;0.53;;;11.30;99.90;11.30;101120.00;;;;5013728;28;20203;-68
2022/11/06 01:23:57;;;;;;;0.77;0.77;;;11.30;99.90;11.30;101129.00;;;;5014313;28;20216;-68
2022/11/06 01:26:24;;;;;;;0.30;0.30;;;11.30;99.90;11.40;101126.00;;;;5013491;28;20180;-68
2022/11/06 01:28:56;;;;;;;2.70;2.47;;;11.40;99.90;11.50;101128.00;;;;5013112;28;20175;-68
2022/11/06 01:31:26;;;;;;;0.63;0.63;;;11.40;99.90;11.30;101123.00;;;;5013953;28;20695;-68
2022/11/06 01:33:57;;;;;;;0.83;0.60;;;11.40;99.90;11.20;101136.00;;;;5013073;28;20238;-68
2022/11/06 01:36:23;;;;;;;0.37;0.37;;;11.40;99.90;11.30;101127.00;;;;5013211;28;20180;-68
2022/11/06 01:38:52;;;;;;;0.30;0.30;;;11.40;99.90;11.50;101139.00;;;;5013030;28;20220;-68
2022/11/06 01:41:30;;;;;;;2.20;2.00;;;11.40;99.90;11.30;101141.00;;;;5012998;28;20663;-68
2022/11/06 01:44:32;;;;;;;0.30;0.30;;;11.40;99.90;11.40;101129.00;;;;5013869;28;20238;-68
2022/11/06 01:47:02;;;;;;;0.80;0.67;;;11.50;99.90;11.10;101146.00;;;;5012874;28;20277;-68
2022/11/06 01:49:35;;;;;;;0.57;0.50;;;11.40;99.90;11.60;101141.00;;;;5016249;28;20707;-68
2022/11/06 01:52:10;;;;;;;0.30;0.30;;;11.40;99.90;11.80;101130.00;;;;5032531;28;20203;-68
2022/11/06 01:54:40;;;;;;;0.87;0.87;;;11.50;99.90;11.50;101125.00;;;;5016491;28;20203;-68
2022/11/06 01:57:06;;;;;;;2.33;0.93;;;11.50;99.90;11.70;101126.00;;;;5033747;28;20565;-68
2022/11/06 01:59:37;;;;;;;0.30;0.30;;;11.60;99.90;11.40;101117.00;;;;5032293;28;20171;-68
2022/11/06 02:02:03;;;;;;;0.87;0.60;;;11.50;99.90;11.40;101111.00;;;;5032247;28;20216;-68
2022/11/06 02:04:38;;;;;;;0.70;0.70;;;11.50;99.90;11.30;101119.00;;;;5032248;28;20225;-68
2022/11/06 02:07:07;;;;;;;0.30;0.30;;;11.40;99.90;11.30;101115.00;;;;5032130;28;20309;-68
2022/11/06 02:09:34;;;;;;;0.53;0.43;;;11.40;99.90;11.20;101128.00;;;;5033485;28;20188;-68
2022/11/06 02:12:23;;;;;;;0.50;0.50;;;11.30;99.90;11.50;101063.00;;;;5032069;28;20289;-67
2022/11/06 02:15:26;;;;;;;1.13;1.13;;;11.40;99.90;11.10;101119.00;;;;5031194;28;20210;-67
2022/11/06 02:18:37;;;;;;;1.37;1.03;;;11.30;99.90;11.20;101125.00;;;;5033398;28;20189;-67
2022/11/06 02:21:58;;;;;;;0.20;0.20;;;11.20;99.90;11.40;101123.00;;;;5033230;28;20199;-67
2022/11/06 02:24:58;;;;;;;0.90;0.90;;;11.30;99.90;11.50;101122.00;;;;5033176;28;20635;-67
2022/11/06 02:27:27;;;;;;;0.30;0.30;;;11.30;99.90;11.60;101128.00;;;;5034049;28;20167;-67
2022/11/06 02:30:11;;;;;;;1.43;0.80;;;11.50;99.90;11.30;101130.00;;;;5032084;28;20168;-67
2022/11/06 02:32:57;;;;;;;0.30;0.30;;;11.40;99.90;11.00;101122.00;;;;5033183;28;20218;-67
2022/11/06 02:35:50;;;;;;;0.40;0.40;;;11.30;99.90;11.20;101113.00;;;;5015421;28;20175;-67
2022/11/06 02:38:26;;;;;;;0.63;0.63;;;11.30;99.90;10.80;101110.00;;;;5032033;28;20212;-67
2022/11/06 02:40:56;;;;;;;3.50;1.13;;;11.10;99.90;10.80;101121.00;;;;5015349;28;20184;-67
2022/11/06 02:43:31;;;;;;;1.20;0.77;;;11.10;99.90;10.80;101122.00;;;;5032091;28;20536;-68
2022/11/06 02:46:12;;;;;;;0.60;0.60;;;11.00;99.90;11.00;101120.00;;;;5031871;28;20186;-68
2022/11/06 02:48:51;;;;;;;0.70;0.70;;;11.00;99.90;11.00;101117.00;;;;5031810;28;20697;-67
2022/11/06 02:51:23;;;;;;;0.40;0.40;;;11.00;99.90;11.00;101068.00;;;;5015144;28;20191;-67
2022/11/06 02:53:49;;;;;;;0.30;0.30;;;11.00;99.90;11.00;101092.00;;;;5031909;28;20531;-67
2022/11/06 02:56:21;;;;;;;0.37;0.37;;;10.90;99.90;11.00;101091.00;;;;5033496;28;20170;-67
2022/11/06 02:59:03;;;;;;;0.30;0.30;;;11.00;99.90;10.90;101091.00;;;;5031642;28;20640;-67
2022/11/06 03:01:58;;;;;;;0.40;0.40;;;10.90;99.90;11.00;101087.00;;;;5032949;28;20553;-67
2022/11/06 03:04:36;;;;;;;0.43;0.43;;;10.90;99.90;11.00;101092.00;;;;5031480;28;20175;-67
2022/11/06 03:07:27;;;;;;;0.67;0.67;;;11.00;99.90;11.20;101075.00;;;;5031858;28;20175;-67
2022/11/06 03:09:56;;;;;;;0.40;0.40;;;11.00;99.90;11.00;101013.00;;;;5031581;28;20183;-67
2022/11/06 03:12:31;;;;;;;0.50;0.50;;;11.00;99.90;11.10;101011.00;;;;5032417;28;20226;-67
2022/11/06 03:15:38;;;;;;;0.40;0.40;;;11.10;99.90;10.90;101043.00;;;;5031795;28;20183;-67
2022/11/06 03:18:33;;;;;;;0.60;0.60;;;11.00;99.90;10.90;101060.00;;;;5033371;28;20167;-67
2022/11/06 03:21:11;;;;;;;0.40;0.40;;;11.00;99.90;10.90;101047.00;;;;5035404;28;20223;-67
2022/11/06 03:23:57;;;;;;;0.30;0.30;;;11.00;99.90;11.20;101049.00;;;;5036673;28;20175;-67
2022/11/06 03:26:35;;;;;;;0.50;0.50;;;11.00;99.90;10.90;101042.00;;;;5034912;28;20183;-67
2022/11/06 03:29:19;;;;;;;0.30;0.30;;;11.10;99.90;11.00;101032.00;;;;5035374;28;20226;-67
2022/11/06 03:31:55;;;;;;;0.70;0.63;;;11.00;99.90;11.10;101020.00;;;;5035113;28;20214;-67
2022/11/06 03:34:54;;;;;;;0.30;0.30;;;11.10;99.90;11.00;100999.00;;;;5018772;28;20203;-67
2022/11/06 03:37:30;;;;;;;0.60;0.60;;;11.00;99.90;11.00;101012.00;;;;5035363;28;20168;-67
2022/11/06 03:40:02;;;;;;;0.63;0.63;;;11.10;99.90;10.90;101016.00;;;;5035033;28;20179;-68
2022/11/06 03:42:30;;;;;;;0.63;0.63;;;11.00;99.90;10.80;100989.00;;;;5034919;28;20178;-68
2022/11/06 03:45:03;;;;;;;0.50;0.50;;;11.00;99.90;11.00;101000.00;;;;5051379;28;20643;-68
2022/11/06 03:47:39;;;;;;;0.33;0.33;;;11.00;99.90;11.10;100990.00;;;;5035388;28;20169;-68
2022/11/06 03:50:33;;;;;;;0.30;0.30;;;11.10;99.90;11.20;101002.00;;;;5034641;28;20191;-67
2022/11/06 03:53:14;;;;;;;0.30;0.30;;;11.10;99.90;11.30;100940.00;;;;5035026;28;20201;-67
2022/11/06 03:55:54;;;;;;;0.33;0.33;;;11.20;99.90;11.00;100985.00;;;;5035460;28;20194;-67
2022/11/06 03:58:25;;;;;;;0.50;0.50;;;11.10;99.90;10.90;100997.00;;;;5034429;28;20643;-67
2022/11/06 04:00:54;;;;;;;2.63;0.40;;;11.10;99.90;11.10;100997.00;;;;5034655;28;20266;-67
2022/11/06 04:03:30;;;;;;;0.77;0.77;;;11.10;99.90;11.00;100998.00;;;;5034584;28;20179;-67
2022/11/06 04:06:16;;;;;;;4.43;2.70;;;11.10;99.90;10.90;100992.00;;;;5018180;28;20599;-67
2022/11/06 04:14:25;;;;;;;0.43;0.43;;;11.10;99.90;11.20;100934.00;;;;5034491;28;20194;-68
2022/11/06 04:17:00;;;;;;;0.27;0.27;;;11.20;99.90;10.90;100930.00;;;;5034384;28;20639;-68
2022/11/06 04:19:25;;;;;;;0.50;0.50;;;11.10;99.90;10.90;100967.00;;;;5034580;28;20166;-67
2022/11/06 04:22:03;;;;;;;0.83;0.83;;;11.00;99.90;10.90;100917.00;;;;5035612;28;20195;-68
2022/11/06 04:27:34;;;;;;;0.77;0.77;;;11.00;99.90;11.20;100957.00;;;;5035144;28;20236;-67
2022/11/06 04:30:10;;;;;;;0.27;0.27;;;11.10;99.90;11.10;100956.00;;;;5035269;28;20177;-67
2022/11/06 04:33:11;;;;;;;2.40;0.80;;;11.10;99.90;10.90;100944.00;;;;5033912;28;20211;-67
2022/11/06 04:36:16;;;;;;;0.37;0.37;;;11.10;99.90;10.80;100893.00;;;;5034123;28;20185;-67
2022/11/06 04:39:16;;;;;;;0.47;0.47;;;11.00;99.90;10.80;100950.00;;;;5034112;28;20180;-67
2022/11/06 04:42:09;;;;;;;0.40;0.40;;;11.00;99.90;10.90;100948.00;;;;5033688;28;20168;-68
2022/11/06 04:44:50;;;;;;;0.87;0.60;;;11.00;99.90;10.80;100946.00;;;;5035395;28;20212;-68
2022/11/06 04:47:21;;;;;;;0.40;0.40;;;11.00;99.90;10.80;100891.00;;;;5033918;28;20199;-68
2022/11/06 04:50:00;;;;;;;0.50;0.50;;;10.90;99.90;10.70;100948.00;;;;5017181;28;20664;-68
2022/11/06 04:52:28;;;;;;;0.83;0.83;;;10.80;99.90;10.60;100953.00;;;;5017178;28;20221;-68
2022/11/06 04:54:56;;;;;;;0.40;0.40;;;10.80;99.90;10.60;100944.00;;;;5033699;28;20174;-68
2022/11/06 04:57:23;;;;;;;0.33;0.33;;;10.70;99.90;10.50;100933.00;;;;5033473;28;20170;-67
2022/11/06 04:59:49;;;;;;;0.83;0.83;;;10.70;99.90;10.50;100938.00;;;;5033741;28;20660;-67
2022/11/06 05:02:15;;;;;;;0.67;0.60;;;10.70;99.90;10.60;100940.00;;;;5033430;28;20183;-67
2022/11/06 05:04:41;;;;;;;1.23;0.80;;;10.60;99.90;10.80;100927.00;;;;5016744;28;20317;-68
2022/11/06 05:07:09;;;;;;;0.50;0.50;;;10.70;99.90;10.60;100922.00;;;;5033622;28;20213;-68
2022/11/06 05:09:35;;;;;;;0.43;0.43;;;10.60;99.90;10.60;100918.00;;;;5033630;28;20524;-67
2022/11/06 05:12:01;;;;;;;1.17;0.93;;;10.60;99.90;10.60;100917.00;;;;5016462;28;20218;-68
2022/11/06 05:14:27;;;;;;;0.53;0.53;;;10.60;99.90;10.50;100909.00;;;;5033497;28;20190;-67
2022/11/06 05:16:53;;;;;;;0.60;0.60;;;10.60;99.90;10.40;100911.00;;;;5033378;28;20178;-67
2022/11/06 05:19:18;;;;;;;0.30;0.30;;;10.50;99.90;10.50;100862.00;;;;5033188;28;20269;-67
2022/11/06 05:24:49;;;;;;;0.30;0.30;;;10.60;99.90;10.60;100900.00;;;;5033297;28;20190;-68
2022/11/06 05:27:15;;;;;;;2.37;0.80;;;10.60;99.90;10.80;100911.00;;;;5033734;28;20253;-68
2022/11/06 05:29:41;;;;;;;1.00;0.90;;;10.60;99.90;10.60;100915.00;;;;5034144;28;20176;-68
2022/11/06 05:32:06;;;;;;;0.57;0.57;;;10.60;99.90;10.60;100930.00;;;;5034169;28;20257;-68
2022/11/06 05:34:35;;;;;;;2.03;0.53;;;10.60;99.90;10.50;100917.00;;;;5034140;28;20179;-68
2022/11/06 05:37:01;;;;;;;0.53;0.43;;;10.60;99.90;10.50;100878.00;;;;5033047;28;20683;-68
2022/11/06 05:39:30;;;;;;;0.20;0.20;;;10.60;99.90;10.50;100896.00;;;;5049290;28;20190;-68
2022/11/06 05:41:59;;;;;;;0.97;0.90;;;10.60;99.90;10.60;100892.00;;;;5033278;28;20270;-67
2022/11/06 05:44:24;;;;;;;5.50;1.13;;;10.60;99.90;10.60;100879.00;;;;5032715;28;20193;-67
2022/11/06 05:46:50;;;;;;;0.33;0.33;;;10.60;99.90;10.60;100878.00;;;;5049638;28;20269;-67
2022/11/06 05:49:18;;;;;;;3.90;1.03;;;10.70;99.90;10.60;100874.00;;;;5033568;28;20698;-67
2022/11/06 05:51:44;;;;;;;0.67;0.37;;;10.70;99.90;10.90;100862.00;;;;5033423;28;20210;-67
2022/11/06 05:54:10;;;;;;;0.40;0.40;;;10.70;99.90;10.80;100881.00;;;;5033595;28;20171;-67
2022/11/06 05:56:36;;;;;;;0.73;0.73;;;10.80;99.90;10.70;100867.00;;;;5033487;28;20185;-67
2022/11/06 05:59:02;;;;;;;0.50;0.50;;;10.80;99.90;10.70;100865.00;;;;5032404;28;20183;-67
2022/11/06 06:01:28;;;;;;;1.17;0.80;;;10.70;99.90;10.70;100882.00;;;;5032707;28;20174;-67
2022/11/06 06:03:54;;;;;;;1.00;0.83;;;10.80;99.90;10.80;100887.00;;;;5032269;28;20178;-67
2022/11/06 06:06:20;;;;;;;1.73;1.43;;;10.80;99.90;10.70;100887.00;;;;5032086;28;20179;-67
2022/11/06 06:08:46;;;;;;;0.37;0.37;;;10.80;99.90;10.80;100882.00;;;;5032248;28;20649;-67
2022/11/06 06:11:11;;;;;;;0.40;0.40;;;10.90;99.90;10.80;100886.00;;;;5033571;28;20181;-67
2022/11/06 06:13:37;;;;;;;1.33;0.80;;;10.90;99.90;10.90;100876.00;;;;5031947;28;20652;-67
2022/11/06 06:16:04;;;;;;;0.60;0.60;;;10.90;99.90;10.80;100888.00;;;;5033647;28;20185;-67
2022/11/06 06:18:29;;;;;;;0.83;0.83;;;10.90;99.90;10.90;100865.00;;;;5032361;28;20178;-67
2022/11/06 06:20:58;;;;;;;0.57;0.57;;;10.90;99.90;11.00;100867.00;;;;5033021;28;20189;-67
2022/11/06 06:23:24;;;;;;;0.40;0.40;;;11.00;99.90;10.80;100867.00;;;;5033365;28;20189;-67
2022/11/06 06:25:51;;;;;;;0.37;0.37;;;11.00;99.90;11.00;100817.00;;;;5033588;28;20170;-67
2022/11/06 06:28:29;;;;;;;1.87;1.47;;;11.00;99.90;10.90;100867.00;;;;5032113;28;20202;-67
2022/11/06 06:30:55;;;;;;;0.80;0.80;;;11.00;99.90;11.00;100850.00;;;;5015892;28;20183;-67
2022/11/06 06:33:21;;;;;;;0.43;0.43;;;11.00;99.90;10.90;100844.00;;;;5031879;28;20573;-67
2022/11/06 06:35:46;;;;;;;0.37;0.37;;;11.00;99.90;11.10;100848.00;;;;5048291;28;20175;-67
2022/11/06 06:38:12;;;;;;;0.43;0.43;;;11.00;99.90;11.00;100835.00;;;;5033174;28;20693;-67
2022/11/06 06:40:38;;;;;;;0.37;0.37;;;11.10;99.90;10.90;100797.00;;;;5033590;28;20167;-67
2022/11/06 06:43:04;;;;;;;1.00;1.00;;;11.00;99.90;10.90;100838.00;;;;5031757;28;20169;-67
2022/11/06 06:45:30;;;;;;;0.37;0.37;;;11.00;99.90;10.90;100851.00;;;;5048637;28;20186;-67
2022/11/06 06:48:02;;;;;;;0.43;0.43;;;11.00;99.90;10.80;100852.00;;;;5031928;28;20194;-67
2022/11/06 06:50:28;;;;;;;2.03;1.00;;;11.00;99.90;11.10;100805.00;;;;5031478;28;20214;-67
2022/11/06 06:52:57;;;;;;;0.87;0.87;;;11.10;99.90;11.00;100847.00;;;;5032965;28;20588;-67
2022/11/06 06:55:23;;;;;;;0.80;0.80;;;11.10;99.90;11.00;100788.00;;;;5036044;28;20175;-67
2022/11/06 06:57:58;;;;;;;0.30;0.30;;;11.10;99.90;11.00;100821.00;;;;5035924;28;20544;-67
2022/11/06 07:00:25;;;;;;;0.50;0.50;;;11.20;99.90;11.20;100789.00;;;;5019418;28;20529;-67
2022/11/06 07:02:51;;;;;;;0.87;0.87;;;11.20;99.90;11.20;100825.00;;;;5052596;28;20183;-67
2022/11/06 07:05:17;;;;;;;0.50;0.50;;;11.30;99.90;11.30;100824.00;;;;5035594;28;20178;-67
2022/11/06 07:07:43;;;;;;;2.03;1.37;;;11.30;99.90;11.30;100820.00;;;;5035998;28;20211;-67
2022/11/06 07:10:09;;;;;;;0.80;0.80;;;11.40;99.90;11.20;100832.00;;;;5035668;28;20215;-67
2022/11/06 07:12:35;;;;;;;0.70;0.70;;;11.40;99.90;11.30;100823.00;;;;5035463;28;20206;-67
2022/11/06 07:15:00;;;;;;;0.70;0.70;;;11.40;99.90;11.20;100807.00;;;;5036718;28;20229;-67
2022/11/06 07:17:27;;;;;;;0.93;0.90;;;11.40;99.90;11.50;100811.00;;;;5035772;28;20240;-67
2022/11/06 07:19:52;;;;;;;0.53;0.50;;;11.50;99.90;11.40;100796.00;;;;5035104;28;20176;-67
2022/11/06 07:22:18;;;;;;;0.57;0.57;;;11.60;99.90;11.50;100785.00;;;;5035515;28;20199;-67
2022/11/06 07:24:44;;;;;;;0.30;0.30;;;11.60;99.90;11.60;100809.00;;;;5035176;28;20191;-67
2022/11/06 07:27:10;;;;;;;0.97;0.87;;;11.70;99.90;11.40;100806.00;;;;5036508;28;20257;-67
2022/11/06 07:29:36;;;;;;;0.50;0.50;;;11.70;99.90;11.60;100815.00;;;;5018846;28;20271;-67
2022/11/06 07:32:02;;;;;;;0.57;0.37;;;11.70;99.90;11.80;100816.00;;;;5034894;28;20254;-67
2022/11/06 07:34:27;;;;;;;11.10;1.03;;;11.90;99.90;11.90;100804.00;;;;5035118;28;20204;-67
2022/11/06 07:36:53;;;;;;;0.40;0.40;;;12.00;99.90;12.00;100798.00;;;;5051945;28;20188;-67
2022/11/06 07:39:19;;;;;;;0.60;0.60;;;12.00;99.90;12.00;100798.00;;;;5035089;28;20184;-67
2022/11/06 07:41:45;;;;;;;0.20;0.20;;;12.10;99.90;12.00;100795.00;;;;5036282;28;20185;-67
2022/11/06 07:44:12;;;;;;;0.40;0.40;;;12.10;99.90;12.00;100791.00;;;;5035020;28;20180;-67
2022/11/06 07:46:38;;;;;;;2.43;1.13;;;12.20;99.90;12.10;100789.00;;;;5018450;28;20224;-67
2022/11/06 07:49:03;;;;;;;0.60;0.60;;;12.20;99.90;12.00;100783.00;;;;5051393;28;20190;-67
2022/11/06 07:51:29;;;;;;;1.23;0.73;;;12.30;99.90;12.30;100773.00;;;;5035956;28;20186;-67
2022/11/06 07:53:55;;;;;;;0.27;0.27;;;12.40;99.90;12.30;100777.00;;;;5034954;28;20211;-67
2022/11/06 07:56:21;;;;;;;1.60;1.27;;;12.40;99.90;12.20;100781.00;;;;5034836;28;20273;-67
2022/11/06 07:58:47;;;;;;;2.40;1.10;;;12.40;99.90;12.40;100774.00;;;;5034990;28;20301;-68
2022/11/06 08:01:16;;;;;;;0.40;0.40;;;12.40;99.90;12.40;100773.00;;;;5034666;28;20195;-68
2022/11/06 08:03:42;;;;;;;0.97;0.83;;;12.50;99.90;12.70;100776.00;;;;5035484;28;20641;-67
2022/11/06 08:06:08;;;;;;;0.70;0.67;;;12.60;99.90;12.60;100770.00;;;;5018074;28;20633;-68
2022/11/06 08:08:35;;;;;;;0.27;0.27;;;12.60;99.90;12.70;100729.00;;;;5034440;28;20316;-68
2022/11/06 08:11:03;;;;;;;0.60;0.40;;;12.70;99.90;12.40;100770.00;;;;5036003;28;20171;-67
2022/11/06 08:13:30;;;;;;;0.70;0.70;;;12.60;99.90;12.90;100775.00;;;;5035771;28;20289;-67
2022/11/06 08:15:55;;;;;;;0.50;0.50;;;12.80;99.90;12.70;100767.00;;;;5034204;28;20169;-67
2022/11/06 08:18:21;;;;;;;0.70;0.70;;;12.80;99.90;12.30;100782.00;;;;5035500;28;20179;-67
2022/11/06 08:20:47;;;;;;;1.17;1.07;;;12.70;99.90;12.50;100778.00;;;;5035616;28;20284;-68
2022/11/06 08:23:16;;;;;;;0.43;0.43;;;12.70;99.90;12.60;100769.00;;;;5035956;28;20249;-67
2022/11/06 08:25:42;;;;;;;0.40;0.40;;;12.70;99.90;12.50;100765.00;;;;5035706;28;20519;-67
2022/11/06 08:28:10;;;;;;;0.40;0.40;;;12.70;99.90;12.40;100755.00;;;;5035425;28;20250;-67
2022/11/06 08:30:37;;;;;;;0.63;0.63;;;12.60;99.90;12.50;100745.00;;;;5035688;28;20179;-67
2022/11/06 08:33:06;;;;;;;0.60;0.60;;;12.60;99.90;12.30;100743.00;;;;5034131;28;20218;-68
2022/11/06 08:35:34;;;;;;;0.53;0.43;;;12.60;99.90;12.50;100750.00;;;;5050919;28;20202;-67
2022/11/06 08:38:04;;;;;;;0.30;0.30;;;12.60;99.90;12.70;100742.00;;;;5035578;28;20182;-67
2022/11/06 08:40:39;;;;;;;0.40;0.40;;;12.70;99.90;12.70;100738.00;;;;5014417;28;20208;-67
2022/11/06 08:43:26;;;;;;;0.43;0.43;;;12.70;99.90;12.40;100738.00;;;;5019271;28;20182;-67
2022/11/06 08:46:15;;;;;;;5.77;1.07;;;12.70;99.90;12.30;100728.00;;;;5025098;28;20195;-67
2022/11/06 08:49:18;;;;;;;0.77;0.77;;;12.70;99.90;12.30;100728.00;;;;5048774;28;20199;-67
2022/11/06 08:51:53;;;;;;;0.23;0.23;;;12.60;99.90;12.60;100736.00;;;;5026803;28;20237;-67
2022/11/06 08:54:19;;;;;;;2.20;0.63;;;12.70;99.90;12.70;100732.00;;;;5017249;28;20190;-67
2022/11/06 08:56:45;;;;;;;0.43;0.43;;;12.70;99.90;12.80;100736.00;;;;5016517;28;20188;-67
2022/11/06 08:59:14;;;;;;;0.97;0.50;;;12.80;99.90;12.70;100727.00;;;;5066719;28;20190;-67
2022/11/06 09:01:58;;;;;;;0.50;0.50;;;12.80;99.90;12.60;100730.00;;;;5066924;28;20614;-67
2022/11/06 09:04:23;;;;;;;0.30;0.30;;;12.70;99.90;12.70;100717.00;;;;5066684;28;20184;-67
2022/11/06 09:06:49;;;;;;;1.83;1.03;;;12.70;99.90;12.50;100706.00;;;;5057978;28;20191;-67
2022/11/06 09:09:38;;;;;;;0.27;0.27;;;12.70;99.90;12.80;100663.00;;;;5034747;28;20201;-67
2022/11/06 09:12:04;;;;;;;0.73;0.60;;;12.80;99.90;12.40;100705.00;;;;5034382;28;20278;-67
2022/11/06 09:14:35;;;;;;;0.33;0.33;;;12.70;99.90;12.70;100709.00;;;;5032863;28;20182;-67
2022/11/06 09:17:06;;;;;;;0.40;0.40;;;12.70;99.90;12.70;100714.00;;;;5034169;28;20238;-67
2022/11/06 09:19:41;;;;;;;1.37;1.13;;;12.80;99.90;13.00;100676.00;;;;5034597;28;20583;-67
2022/11/06 09:22:13;;;;;;;1.17;1.17;;;12.90;99.90;13.00;100717.00;;;;5034142;28;20192;-68
2022/11/06 09:24:56;;;;;;;0.80;0.80;;;12.90;99.90;13.00;100666.00;;;;5031314;28;20185;-67
2022/11/06 09:27:50;;;;;;;1.90;0.70;;;12.90;99.90;12.70;100710.00;;;;5062171;28;20193;-67
2022/11/06 09:30:38;;;;;;;0.20;0.20;;;12.90;99.90;13.20;100662.00;;;;5032937;28;20181;-68
2022/11/06 09:33:38;;;;;;;0.53;0.40;;;13.00;99.90;12.90;100703.00;;;;5015563;28;20225;-67
2022/11/06 09:36:24;;;;;;;0.40;0.40;;;13.00;99.90;12.90;100688.00;;;;5032807;28;20650;-67
2022/11/06 09:39:08;;;;;;;1.77;1.60;;;13.00;99.90;13.10;100696.00;;;;5016043;28;20274;-67
2022/11/06 09:41:42;;;;;;;0.73;0.73;;;13.10;99.90;13.10;100701.00;;;;5031260;28;20257;-67
2022/11/06 09:44:38;;;;;;;0.37;0.37;;;13.20;99.90;12.90;100691.00;;;;5014394;28;20197;-68
2022/11/06 09:47:46;;;;;;;1.17;0.60;;;13.10;99.90;12.90;100637.00;;;;5032260;28;20602;-67
2022/11/06 09:50:53;;;;;;;0.70;0.70;;;13.00;99.90;13.10;100679.00;;;;5016296;28;20185;-68
2022/11/06 09:54:51;;;;;;;0.90;0.60;;;13.10;99.90;12.90;100684.00;;;;5032429;28;20230;-68
2022/11/06 09:57:40;;;;;;;0.30;0.30;;;13.00;99.90;13.00;100676.00;;;;4977511;28;20184;-68
2022/11/06 10:00:13;;;;;;;0.53;0.53;;;13.10;99.90;13.10;100667.00;;;;4992094;28;20180;-69
2022/11/06 10:02:52;;;;;;;0.37;0.37;;;13.10;99.90;13.20;100678.00;;;;5033505;28;20201;-69
2022/11/06 10:05:30;;;;;;;0.40;0.40;;;13.10;99.90;13.10;100688.00;;;;5032169;28;20179;-69
2022/11/06 10:08:04;;;;;;;0.90;0.80;;;13.10;99.90;13.20;100669.00;;;;5016653;28;20197;-69
2022/11/06 10:11:10;;;;;;;1.93;0.77;;;13.20;99.90;13.20;100666.00;;;;5014689;28;20191;-68
2022/11/06 10:14:08;;;;;;;0.97;0.90;;;13.10;99.90;13.40;100661.00;;;;5030757;28;20750;-68
2022/11/06 10:17:07;;;;;;;0.50;0.50;;;13.20;99.90;13.40;100660.00;;;;5032501;28;20283;-69
2022/11/06 10:20:05;;;;;;;1.90;1.20;;;13.30;99.90;13.20;100649.00;;;;5009376;28;20211;-70
2022/11/06 10:33:30;;;;;;;0.20;0.20;;;12.90;99.90;13.00;100655.00;;;;5070294;28;20585;-68
2022/11/06 10:36:04;;;;;;;0.20;0.20;;;13.00;99.90;13.30;100650.00;;;;5049172;28;20218;-68
2022/11/06 10:38:57;;;;;;;0.63;0.63;;;13.20;99.90;13.30;100644.00;;;;5049508;28;20185;-68
2022/11/06 10:41:56;;;;;;;0.73;0.67;;;13.20;99.90;13.40;100654.00;;;;5049759;28;20194;-68
2022/11/06 10:45:18;;;;;;;0.20;0.20;;;13.30;99.90;13.20;100657.00;;;;5050553;28;20213;-69
2022/11/06 10:47:50;;;;;;;0.83;0.53;;;13.20;99.90;13.10;100647.00;;;;5047344;28;20241;-68
2022/11/06 10:50:17;;;;;;;1.37;1.37;;;13.10;99.90;13.10;100641.00;;;;5050148;28;20186;-68
2022/11/06 10:53:04;;;;;;;0.20;0.20;;;13.10;99.90;13.30;100644.00;;;;5048717;28;20662;-69
2022/11/06 10:55:45;;;;;;;1.10;1.00;;;13.20;99.90;13.10;100629.00;;;;5049120;28;20186;-69
2022/11/06 10:58:22;;;;;;;3.83;1.17;;;13.10;99.90;13.10;100627.00;;;;5050098;28;20195;-68
2022/11/06 11:01:18;;;;;;;0.70;0.70;;;13.10;99.90;13.00;100586.00;;;;5049003;28;20173;-68
2022/11/06 11:03:45;;;;;;;3.30;0.63;;;13.10;99.90;13.20;100623.00;;;;5031543;28;20585;-68
2022/11/06 11:06:15;;;;;;;0.30;0.30;;;13.10;99.90;13.10;100622.00;;;;5031997;28;20189;-68
2022/11/06 11:08:45;;;;;;;0.40;0.40;;;13.10;99.90;12.90;100613.00;;;;5048848;28;20185;-68
2022/11/06 11:11:14;;;;;;;0.53;0.53;;;13.00;99.90;13.40;100611.00;;;;5031518;28;20178;-68
2022/11/06 11:14:13;;;;;;;1.03;0.87;;;13.10;99.90;13.00;100596.00;;;;5048652;28;20186;-68
2022/11/06 11:16:45;;;;;;;1.03;0.70;;;13.30;99.90;13.10;100588.00;;;;5031934;28;20189;-68
2022/11/06 11:19:34;;;;;;;0.33;0.33;;;13.20;99.90;13.40;100596.00;;;;5031902;28;20190;-68
2022/11/06 11:22:15;;;;;;;1.23;0.60;;;13.20;99.90;13.40;100589.00;;;;5048711;28;20193;-68
2022/11/06 11:25:06;;;;;;;0.83;0.70;;;13.30;99.90;13.10;100588.00;;;;5049634;28;20626;-68
2022/11/06 11:27:42;;;;;;;0.30;0.30;;;13.20;99.90;13.20;100589.00;;;;5048380;28;20240;-68
2022/11/06 11:30:25;;;;;;;2.03;1.93;;;13.30;99.90;12.80;100567.00;;;;5048132;28;20182;-68
2022/11/06 11:32:57;;;;;;;0.73;0.73;;;13.00;99.90;13.00;100531.00;;;;5047980;28;20304;-68
2022/11/06 11:35:30;;;;;;;0.40;0.40;;;13.00;99.90;13.20;100573.00;;;;5048097;28;20627;-68
2022/11/06 11:38:18;;;;;;;0.53;0.53;;;13.10;99.90;13.10;100561.00;;;;5049424;28;20210;-68
2022/11/06 11:40:47;;;;;;;1.70;0.63;;;13.20;99.90;13.30;100552.00;;;;5047945;28;20182;-68
2022/11/06 11:43:29;;;;;;;0.20;0.20;;;13.10;99.90;13.50;100510.00;;;;5043578;28;20186;-68
2022/11/06 11:46:07;;;;;;;0.83;0.50;;;13.20;99.90;13.40;100499.00;;;;5034650;28;20192;-68